Terminal Aerodrome Forecast
Issued by NWS

Home | Current Version | Previous Version | Text Only | Print | Product List | Glossary On
Versions: 1 2 3 4 5 6 7 8 9 10 11 12
000
FTUS46 KSEW 232300
TAFBLI
TAF
KBLI 232322Z 2400/2424 17007KT P6SM -RA SCT005 BKN021 OVC080
      TEMPO 2400/2404 5SM -RA BR BKN005 OVC020
     FM240600 17008G18KT 4SM -RA BR OVC015
     FM242200 17011KT P6SM OVC050=

USA.gov is the U.S. government's official web portal to all federal, state and local government web resources and services.